createdAt,value
2019-02-17T00:01:26.828Z,4.80
2019-02-17T00:03:55.383Z,4.80
2019-02-17T00:06:23.960Z,4.90
2019-02-17T00:08:52.577Z,4.90
2019-02-17T00:11:21.145Z,4.90
2019-02-17T00:13:49.710Z,4.90
2019-02-17T00:16:18.286Z,4.90
2019-02-17T00:18:47.713Z,4.90
2019-02-17T00:21:16.296Z,5.00
2019-02-17T00:23:44.955Z,4.80
2019-02-17T00:26:13.537Z,4.30
2019-02-17T00:28:42.100Z,4.20
2019-02-17T00:31:10.677Z,4.00
2019-02-17T00:33:39.237Z,3.90
2019-02-17T00:36:07.837Z,3.90
2019-02-17T00:38:36.392Z,4.00
2019-02-17T00:41:05.340Z,3.90
2019-02-17T00:43:34.208Z,3.90
2019-02-17T00:46:02.764Z,3.90
2019-02-17T00:48:31.351Z,3.80
2019-02-17T00:50:59.911Z,3.70
2019-02-17T00:53:28.508Z,3.60
2019-02-17T00:55:57.070Z,3.60
2019-02-17T00:58:25.664Z,3.50
2019-02-17T01:00:56.140Z,3.50
2019-02-17T01:03:24.424Z,3.60
2019-02-17T01:05:53.010Z,3.70
2019-02-17T01:08:21.568Z,3.70
2019-02-17T01:10:50.149Z,3.80
2019-02-17T01:13:18.793Z,3.80
2019-02-17T01:15:47.777Z,4.00
2019-02-17T01:18:16.433Z,4.10
2019-02-17T01:20:45.020Z,4.00
2019-02-17T01:23:13.581Z,3.90
2019-02-17T01:25:42.517Z,3.70
2019-02-17T01:28:11.092Z,3.60
2019-02-17T01:30:39.656Z,3.60
2019-02-17T01:33:08.793Z,3.60
2019-02-17T01:35:37.644Z,3.60
2019-02-17T01:38:07.219Z,3.50
2019-02-17T01:40:35.781Z,3.60
2019-02-17T01:43:04.503Z,3.70
2019-02-17T01:45:33.057Z,3.80
2019-02-17T01:48:01.649Z,3.80
2019-02-17T01:50:30.205Z,3.80
2019-02-17T01:52:59.094Z,3.70
2019-02-17T01:55:27.672Z,3.70
2019-02-17T01:57:56.640Z,3.60
2019-02-17T02:00:25.315Z,3.60
2019-02-17T02:02:53.916Z,3.50
2019-02-17T02:05:22.561Z,3.50
2019-02-17T02:07:51.121Z,3.40
2019-02-17T02:10:19.700Z,3.20
2019-02-17T02:12:48.324Z,3.10
2019-02-17T02:15:17.005Z,3.10
2019-02-17T02:17:45.581Z,3.00
2019-02-17T02:20:14.256Z,3.10
2019-02-17T02:22:42.832Z,3.10
2019-02-17T02:25:11.623Z,3.10
2019-02-17T02:27:40.214Z,3.20
2019-02-17T02:30:11.981Z,3.20
2019-02-17T02:32:40.557Z,3.20
2019-02-17T02:35:09.185Z,3.30
2019-02-17T02:37:37.765Z,3.30
2019-02-17T02:40:07.790Z,3.30
2019-02-17T02:42:36.546Z,3.30
2019-02-17T02:45:07.941Z,3.20
2019-02-17T02:47:36.845Z,3.20
2019-02-17T02:50:08.466Z,3.30
2019-02-17T02:52:37.141Z,3.20
2019-02-17T02:55:06.176Z,3.00
2019-02-17T02:57:35.150Z,2.80
2019-02-17T03:00:05.069Z,2.60
2019-02-17T03:02:33.632Z,2.50
2019-02-17T03:05:02.281Z,2.70
2019-02-17T03:07:30.851Z,2.80
2019-02-17T03:09:59.474Z,2.90
2019-02-17T03:12:28.029Z,3.00
2019-02-17T03:14:56.640Z,3.10
2019-02-17T03:17:25.226Z,3.30
2019-02-17T03:19:53.757Z,3.30
2019-02-17T03:22:22.333Z,3.10
2019-02-17T03:24:50.889Z,3.00
2019-02-17T03:27:19.461Z,2.90
2019-02-17T03:29:48.015Z,2.80
2019-02-17T03:32:16.633Z,2.80
2019-02-17T03:34:45.156Z,2.90
2019-02-17T03:37:13.740Z,3.00
2019-02-17T03:39:42.447Z,3.20
2019-02-17T03:42:11.028Z,3.20
2019-02-17T03:44:39.592Z,3.30
2019-02-17T03:47:08.285Z,3.30
2019-02-17T03:49:37.289Z,3.40
2019-02-17T03:52:05.961Z,3.50
2019-02-17T03:54:34.528Z,3.70
2019-02-17T03:57:03.092Z,3.70
2019-02-17T03:59:32.109Z,3.80
2019-02-17T04:02:00.689Z,3.70
2019-02-17T04:04:29.271Z,3.70
2019-02-17T04:06:57.892Z,3.40
2019-02-17T04:09:26.474Z,3.10
2019-02-17T04:11:55.037Z,3.00
2019-02-17T04:14:23.617Z,3.00
2019-02-17T04:16:52.181Z,2.90
2019-02-17T04:19:21.129Z,2.90
2019-02-17T04:21:49.808Z,2.90
2019-02-17T04:24:18.531Z,2.80
2019-02-17T04:26:47.180Z,2.70
2019-02-17T04:29:15.736Z,2.60
2019-02-17T04:31:44.376Z,2.40
2019-02-17T04:34:12.936Z,2.30
2019-02-17T04:36:41.522Z,2.20
2019-02-17T04:39:10.077Z,2.20
2019-02-17T04:41:38.657Z,2.20
2019-02-17T04:44:07.382Z,2.20
2019-02-17T04:46:35.963Z,2.30
2019-02-17T04:49:04.516Z,2.30
2019-02-17T04:51:33.093Z,2.20
2019-02-17T04:54:01.658Z,2.10
2019-02-17T04:56:30.208Z,2.10
2019-02-17T04:58:58.783Z,2.10
2019-02-17T05:01:27.756Z,2.10
2019-02-17T05:03:56.332Z,2.20
2019-02-17T05:06:24.891Z,2.20
2019-02-17T05:08:53.759Z,2.20
2019-02-17T05:11:22.313Z,2.30
2019-02-17T05:13:50.916Z,2.30
2019-02-17T05:16:19.773Z,2.20
2019-02-17T05:18:48.349Z,2.20
2019-02-17T05:21:16.906Z,2.20
2019-02-17T05:23:45.486Z,2.20
2019-02-17T05:26:14.037Z,2.10
2019-02-17T05:28:42.613Z,2.00
2019-02-17T05:31:11.172Z,2.00
2019-02-17T05:33:39.749Z,2.00
2019-02-17T05:36:08.380Z,2.00
2019-02-17T05:38:36.938Z,1.90
2019-02-17T05:41:05.516Z,1.90
2019-02-17T05:43:34.103Z,1.90
2019-02-17T05:46:04.310Z,1.80
2019-02-17T05:48:32.861Z,1.90
2019-02-17T05:51:01.529Z,2.00
2019-02-17T05:53:30.079Z,2.00
2019-02-17T05:55:58.654Z,2.10
2019-02-17T05:58:27.209Z,2.20
2019-02-17T06:01:03.333Z,2.20
2019-02-17T06:03:26.229Z,2.10
2019-02-17T06:05:54.995Z,1.90
2019-02-17T06:08:23.634Z,1.90
2019-02-17T06:10:52.184Z,2.00
2019-02-17T06:13:21.091Z,2.10
2019-02-17T06:15:49.660Z,2.00
2019-02-17T06:18:18.314Z,2.10
2019-02-17T06:20:47.108Z,2.10
2019-02-17T06:23:15.729Z,2.00
2019-02-17T06:25:44.651Z,1.90
2019-02-17T06:28:13.230Z,1.90
2019-02-17T06:30:41.809Z,1.80
2019-02-17T06:33:10.384Z,1.80
2019-02-17T06:35:39.277Z,1.80
2019-02-17T06:38:07.865Z,1.80
2019-02-17T06:40:36.419Z,1.90
2019-02-17T06:43:04.977Z,1.90
2019-02-17T06:45:33.571Z,1.90
2019-02-17T06:48:02.203Z,1.90
2019-02-17T06:50:32.779Z,1.90
2019-02-17T06:53:01.036Z,1.90
2019-02-17T06:55:33.839Z,2.50
2019-02-17T06:58:02.399Z,3.60
2019-02-17T07:00:32.621Z,4.50
2019-02-17T07:03:01.301Z,5.30
2019-02-17T07:05:31.495Z,6.20
2019-02-17T07:08:00.172Z,6.80
2019-02-17T07:10:29.121Z,7.70
2019-02-17T07:12:57.680Z,8.30
2019-02-17T07:15:26.564Z,8.40
2019-02-17T07:17:55.128Z,8.50
2019-02-17T07:20:23.682Z,8.30
2019-02-17T07:22:52.263Z,8.00
2019-02-17T07:25:29.694Z,7.90
2019-02-17T07:27:51.097Z,8.10
2019-02-17T07:30:19.920Z,7.80
2019-02-17T07:32:48.514Z,7.70
2019-02-17T07:35:17.064Z,7.60
2019-02-17T07:37:45.669Z,7.70
2019-02-17T07:40:14.300Z,7.80
2019-02-17T07:42:42.883Z,7.80
2019-02-17T07:45:11.631Z,7.80
2019-02-17T07:47:40.242Z,8.20
2019-02-17T07:50:10.325Z,8.10
2019-02-17T07:52:39.027Z,8.40
2019-02-17T07:55:10.156Z,9.10
2019-02-17T07:57:38.796Z,10.20
2019-02-17T08:00:13.908Z,12.40
2019-02-17T08:02:42.466Z,14.50
2019-02-17T08:05:11.131Z,15.40
2019-02-17T08:07:39.710Z,15.50
2019-02-17T08:10:09.732Z,16.40
2019-02-17T08:12:38.340Z,16.30
2019-02-17T08:15:09.380Z,16.00
2019-02-17T08:17:37.952Z,15.10
2019-02-17T08:20:09.591Z,14.60
2019-02-17T08:22:38.254Z,14.60
2019-02-17T08:25:08.326Z,14.40
2019-02-17T08:27:36.994Z,14.80
2019-02-17T08:30:09.315Z,14.30
2019-02-17T08:32:37.869Z,14.80
2019-02-17T08:35:06.895Z,15.80
2019-02-17T08:37:35.491Z,17.60
2019-02-17T08:40:06.392Z,19.20
2019-02-17T08:42:34.975Z,20.40
2019-02-17T08:45:03.756Z,23.10
2019-02-17T08:47:32.317Z,24.30
2019-02-17T08:50:00.953Z,24.50
2019-02-17T08:52:29.512Z,25.50
2019-02-17T08:54:58.144Z,26.00
2019-02-17T08:57:26.726Z,25.80
2019-02-17T08:59:55.317Z,26.10
2019-02-17T09:02:23.908Z,25.40
2019-02-17T09:04:52.480Z,24.20
2019-02-17T09:07:21.047Z,23.80
2019-02-17T09:09:49.614Z,23.40
2019-02-17T09:12:21.317Z,23.80
2019-02-17T09:14:49.852Z,25.20
2019-02-17T09:17:18.454Z,26.80
2019-02-17T09:19:47.020Z,29.30
2019-02-17T09:22:15.601Z,31.00
2019-02-17T09:24:44.155Z,32.50
2019-02-17T09:27:12.753Z,33.40
2019-02-17T09:29:41.318Z,33.90
2019-02-17T09:32:16.421Z,34.60
2019-02-17T09:34:40.360Z,34.70
2019-02-17T09:37:09.317Z,35.30
2019-02-17T09:39:37.903Z,35.00
2019-02-17T09:42:06.472Z,34.80
2019-02-17T09:44:35.068Z,34.30
2019-02-17T09:47:03.617Z,34.40
2019-02-17T09:49:32.221Z,34.30
2019-02-17T09:52:01.148Z,33.50
2019-02-17T09:54:29.742Z,33.20
2019-02-17T09:56:58.304Z,33.20
2019-02-17T09:59:27.067Z,34.10
2019-02-17T10:01:55.634Z,34.00
2019-02-17T10:04:24.192Z,33.90
2019-02-17T10:06:52.788Z,33.20
2019-02-17T10:09:21.349Z,34.00
2019-02-17T10:11:49.934Z,34.70
2019-02-17T10:14:18.505Z,35.50
2019-02-17T10:16:47.086Z,35.80
2019-02-17T10:19:15.661Z,36.20
2019-02-17T10:21:44.248Z,36.60
2019-02-17T10:24:12.864Z,37.40
2019-02-17T10:26:41.413Z,37.50
2019-02-17T10:29:09.969Z,37.80
2019-02-17T10:31:38.568Z,37.90
2019-02-17T10:34:07.165Z,38.70
2019-02-17T10:36:35.724Z,39.50
2019-02-17T10:39:05.557Z,39.80
2019-02-17T10:41:34.121Z,41.40
2019-02-17T10:44:02.742Z,42.20
2019-02-17T10:46:31.280Z,41.80
2019-02-17T10:48:59.869Z,43.10
2019-02-17T10:51:28.440Z,42.50
2019-02-17T10:53:57.204Z,44.30
2019-02-17T10:56:25.708Z,45.10
2019-02-17T10:58:54.268Z,45.50
2019-02-17T11:01:22.927Z,44.90
2019-02-17T11:04:02.798Z,40.70
2019-02-17T11:06:31.392Z,42.40
2019-02-17T11:08:59.960Z,36.90
2019-02-17T11:11:28.553Z,36.30
2019-02-17T11:13:57.404Z,39.40
2019-02-17T11:16:26.068Z,39.70
2019-02-17T11:18:54.727Z,42.50
2019-02-17T11:21:23.321Z,42.10
2019-02-17T11:23:51.891Z,43.60
2019-02-17T11:26:20.464Z,44.10
2019-02-17T11:28:49.047Z,44.60
2019-02-17T11:31:17.640Z,43.90
2019-02-17T11:33:46.497Z,43.10
2019-02-17T11:36:15.207Z,43.70
2019-02-17T11:38:43.756Z,41.90
2019-02-17T11:41:12.736Z,42.70
2019-02-17T11:43:41.404Z,42.40
2019-02-17T11:46:10.261Z,41.00
2019-02-17T11:48:38.849Z,38.40
2019-02-17T11:51:07.856Z,36.60
2019-02-17T11:53:36.806Z,33.50
2019-02-17T11:56:05.377Z,31.90
2019-02-17T11:58:34.847Z,30.80
2019-02-17T12:01:05.302Z,29.20
2019-02-17T12:03:33.628Z,28.40
2019-02-17T12:06:02.199Z,27.50
2019-02-17T12:08:30.792Z,26.70
2019-02-17T12:10:59.360Z,25.90
2019-02-17T12:13:27.924Z,25.40
2019-02-17T12:15:56.513Z,25.00
2019-02-17T12:18:25.118Z,24.50
2019-02-17T12:20:55.351Z,24.10
2019-02-17T12:23:25.529Z,24.00
2019-02-17T12:26:07.645Z,23.20
2019-02-17T12:28:40.793Z,23.20
2019-02-17T12:31:10.032Z,23.10
2019-02-17T12:33:39.358Z,22.60
2019-02-17T12:36:07.937Z,22.40
2019-02-17T12:38:36.492Z,22.30
2019-02-17T12:41:05.185Z,22.10
2019-02-17T12:43:33.744Z,22.10
2019-02-17T12:46:02.337Z,22.10
2019-02-17T12:48:30.900Z,21.90
2019-02-17T12:51:00.280Z,21.90
2019-02-17T12:53:29.016Z,21.70
2019-02-17T12:55:57.578Z,21.60
2019-02-17T12:58:29.933Z,21.40
2019-02-17T13:00:56.828Z,21.30
2019-02-17T13:03:28.548Z,21.20
2019-02-17T13:05:55.621Z,21.10
2019-02-17T13:08:24.227Z,20.90
2019-02-17T13:10:52.773Z,20.80
2019-02-17T13:13:21.658Z,20.60
2019-02-17T13:15:50.201Z,20.50
2019-02-17T13:18:18.760Z,20.40
2019-02-17T13:20:47.480Z,20.30
2019-02-17T13:23:16.098Z,20.20
2019-02-17T13:25:44.656Z,20.10
2019-02-17T13:28:13.213Z,20.10
2019-02-17T13:30:41.796Z,20.00
2019-02-17T13:33:10.420Z,19.90
2019-02-17T13:35:39.106Z,19.90
2019-02-17T13:38:07.732Z,19.60
2019-02-17T13:40:36.910Z,19.30
2019-02-17T13:43:05.480Z,19.20
2019-02-17T13:45:34.036Z,19.20
2019-02-17T13:48:02.637Z,19.20
2019-02-17T13:50:31.215Z,19.30
2019-02-17T13:52:59.840Z,19.40
2019-02-17T13:55:29.108Z,19.30
2019-02-17T13:57:57.834Z,19.20
2019-02-17T14:00:26.397Z,19.10
2019-02-17T14:02:54.982Z,19.00
2019-02-17T14:05:23.655Z,19.00
2019-02-17T14:07:52.228Z,19.10
2019-02-17T14:10:20.808Z,19.10
2019-02-17T14:12:49.405Z,19.10
2019-02-17T14:15:19.453Z,19.00
2019-02-17T14:17:48.089Z,18.90
2019-02-17T14:20:16.777Z,18.80
2019-02-17T14:22:45.336Z,18.60
2019-02-17T14:25:14.088Z,18.50
2019-02-17T14:27:42.684Z,18.40
2019-02-17T14:30:13.660Z,18.40
2019-02-17T14:32:42.308Z,18.30
2019-02-17T14:35:11.234Z,18.40
2019-02-17T14:37:39.888Z,18.30
2019-02-17T14:40:10.953Z,18.30
2019-02-17T14:42:39.645Z,18.30
2019-02-17T14:45:13.261Z,18.20
2019-02-17T14:47:41.998Z,18.10
2019-02-17T14:50:11.510Z,18.10
2019-02-17T14:52:40.074Z,18.10
2019-02-17T14:55:10.756Z,18.10
2019-02-17T14:57:39.411Z,18.10
2019-02-17T15:00:13.128Z,18.10
2019-02-17T15:02:41.776Z,18.00
2019-02-17T15:05:10.897Z,18.00
2019-02-17T15:07:39.497Z,18.00
2019-02-17T15:10:12.324Z,18.00
2019-02-17T15:12:40.890Z,18.00
2019-02-17T15:15:13.827Z,18.00
2019-02-17T15:17:42.521Z,17.90
2019-02-17T15:20:16.596Z,17.90
2019-02-17T15:22:45.209Z,17.90
2019-02-17T15:25:13.832Z,17.80
2019-02-17T15:27:42.426Z,17.80
2019-02-17T15:30:13.226Z,17.70
2019-02-17T15:32:41.864Z,17.40
2019-02-17T15:35:11.798Z,17.20
2019-02-17T15:37:40.458Z,17.30
2019-02-17T15:40:11.520Z,17.20
2019-02-17T15:42:40.183Z,17.10
2019-02-17T15:45:10.881Z,17.00
2019-02-17T15:47:39.574Z,16.90
2019-02-17T15:50:12.691Z,16.80
2019-02-17T15:52:41.246Z,16.60
2019-02-17T15:55:13.925Z,16.50
2019-02-17T15:57:42.499Z,16.40
2019-02-17T16:00:18.570Z,16.30
2019-02-17T16:02:47.124Z,16.10
2019-02-17T16:05:15.711Z,15.80
2019-02-17T16:07:44.261Z,15.60
2019-02-17T16:10:14.481Z,15.50
2019-02-17T16:12:43.048Z,15.40
2019-02-17T16:15:20.132Z,15.30
2019-02-17T16:17:48.759Z,15.20
2019-02-17T16:20:17.315Z,15.10
2019-02-17T16:22:45.928Z,15.00
2019-02-17T16:25:14.488Z,14.90
2019-02-17T16:27:43.068Z,14.80
2019-02-17T16:30:17.523Z,14.70
2019-02-17T16:32:46.117Z,14.60
2019-02-17T16:35:14.773Z,14.50
2019-02-17T16:37:43.353Z,14.40
2019-02-17T16:40:14.087Z,14.40
2019-02-17T16:42:42.981Z,14.30
2019-02-17T16:45:13.241Z,14.20
2019-02-17T16:47:42.281Z,14.10
2019-02-17T16:50:16.570Z,14.00
2019-02-17T16:52:45.216Z,13.90
2019-02-17T16:55:13.795Z,13.90
2019-02-17T16:57:42.449Z,13.80
2019-02-17T17:00:18.164Z,13.70
2019-02-17T17:02:46.803Z,13.70
2019-02-17T17:05:15.451Z,13.60
2019-02-17T17:07:44.128Z,13.50
2019-02-17T17:10:12.869Z,13.40
2019-02-17T17:12:41.503Z,13.30
2019-02-17T17:15:10.705Z,13.20
2019-02-17T17:17:39.479Z,13.10
2019-02-17T17:20:10.577Z,13.00
2019-02-17T17:22:39.232Z,12.80
2019-02-17T17:25:10.607Z,12.70
2019-02-17T17:27:41.311Z,12.40
2019-02-17T17:30:16.372Z,12.10
2019-02-17T17:32:45.025Z,12.00
2019-02-17T17:35:13.725Z,12.00
2019-02-17T17:37:42.407Z,11.90
2019-02-17T17:40:12.712Z,11.80
2019-02-17T17:42:41.392Z,11.80
2019-02-17T17:45:23.389Z,11.80
2019-02-17T17:47:52.079Z,11.60
2019-02-17T17:50:20.637Z,11.40
2019-02-17T17:52:49.298Z,11.30
2019-02-17T17:55:17.849Z,11.10
2019-02-17T17:57:46.489Z,11.00
2019-02-17T18:00:24.002Z,10.80
2019-02-17T18:02:52.569Z,10.70
2019-02-17T18:05:21.231Z,10.50
2019-02-17T18:07:49.793Z,10.60
2019-02-17T18:10:19.257Z,10.50
2019-02-17T18:12:47.817Z,10.60
2019-02-17T18:15:18.542Z,10.60
2019-02-17T18:17:53.839Z,10.60
2019-02-17T18:20:17.591Z,10.60
2019-02-17T18:22:46.157Z,10.60
2019-02-17T18:25:15.154Z,10.50
2019-02-17T18:27:43.865Z,10.40
2019-02-17T18:30:16.515Z,10.50
2019-02-17T18:32:45.548Z,10.70
2019-02-17T18:35:19.846Z,10.80
2019-02-17T18:37:44.512Z,10.90
2019-02-17T18:40:19.707Z,10.90
2019-02-17T18:42:48.717Z,11.00
2019-02-17T18:45:17.237Z,10.90
2019-02-17T18:47:45.896Z,10.90
2019-02-17T18:50:16.767Z,11.00
2019-02-17T18:52:45.321Z,11.10
2019-02-17T18:55:14.443Z,11.10
2019-02-17T18:57:50.091Z,11.10
2019-02-17T19:00:21.637Z,11.00
2019-02-17T19:02:50.224Z,11.10
2019-02-17T19:05:21.674Z,11.10
2019-02-17T19:07:49.237Z,11.10
2019-02-17T19:10:17.821Z,11.20
2019-02-17T19:12:46.368Z,11.20
2019-02-17T19:15:16.597Z,11.30
2019-02-17T19:17:45.246Z,11.40
2019-02-17T19:20:19.547Z,11.30
2019-02-17T19:22:48.194Z,11.30
2019-02-17T19:25:16.801Z,11.10
2019-02-17T19:27:45.435Z,11.10
2019-02-17T19:30:15.510Z,11.00
2019-02-17T19:32:44.273Z,10.80
2019-02-17T19:35:14.822Z,10.70
2019-02-17T19:37:43.377Z,10.60
2019-02-17T19:40:13.965Z,10.60
2019-02-17T19:42:42.524Z,10.40
2019-02-17T19:45:15.881Z,10.30
2019-02-17T19:47:44.450Z,10.10
2019-02-17T19:50:14.449Z,10.00
2019-02-17T19:52:43.006Z,9.90
2019-02-17T19:55:12.648Z,10.10
2019-02-17T19:57:41.296Z,10.30
2019-02-17T20:00:15.434Z,10.40
2019-02-17T20:02:57.471Z,10.40
2019-02-17T20:05:35.283Z,10.40
2019-02-17T20:08:04.206Z,10.40
2019-02-17T20:10:32.861Z,10.40
2019-02-17T20:13:01.414Z,10.40
2019-02-17T20:15:31.608Z,10.40
2019-02-17T20:18:00.577Z,10.40
2019-02-17T20:20:29.208Z,10.40
2019-02-17T20:22:57.780Z,10.40
2019-02-17T20:25:26.336Z,10.40
2019-02-17T20:27:54.918Z,10.30
2019-02-17T20:30:23.486Z,10.20
2019-02-17T20:32:52.060Z,10.10
2019-02-17T20:35:20.685Z,10.10
2019-02-17T20:37:49.249Z,10.10
2019-02-17T20:40:18.683Z,10.10
2019-02-17T20:42:47.246Z,10.10
2019-02-17T20:45:15.817Z,10.00
2019-02-17T20:47:44.406Z,10.00
2019-02-17T20:50:17.729Z,9.90
2019-02-17T20:52:46.439Z,9.80
2019-02-17T20:55:15.110Z,9.70
2019-02-17T20:57:43.661Z,9.70
2019-02-17T21:00:13.857Z,9.60
2019-02-17T21:02:42.434Z,9.40
2019-02-17T21:05:11.472Z,9.40
2019-02-17T21:07:40.041Z,9.30
2019-02-17T21:10:13.038Z,9.40
2019-02-17T21:12:41.756Z,9.40
2019-02-17T21:15:16.553Z,9.40
2019-02-17T21:17:45.135Z,9.40
2019-02-17T21:20:14.748Z,9.40
2019-02-17T21:22:43.324Z,9.50
2019-02-17T21:25:15.342Z,9.50
2019-02-17T21:27:44.702Z,9.60
2019-02-17T21:30:17.332Z,9.40
2019-02-17T21:32:46.720Z,9.20
2019-02-17T21:35:16.536Z,9.20
2019-02-17T21:37:45.227Z,9.00
2019-02-17T21:40:14.585Z,9.00
2019-02-17T21:42:43.282Z,8.80
2019-02-17T21:45:12.818Z,8.30
2019-02-17T21:47:41.985Z,7.70
2019-02-17T21:50:14.481Z,7.30
2019-02-17T21:52:43.141Z,6.90
2019-02-17T21:55:12.832Z,6.50
2019-02-17T21:57:41.487Z,6.30
2019-02-17T22:00:19.432Z,6.20
2019-02-17T22:02:48.316Z,6.00
2019-02-17T22:05:17.022Z,5.90
2019-02-17T22:07:45.663Z,5.70
2019-02-17T22:10:16.642Z,5.60
2019-02-17T22:12:45.460Z,5.60
2019-02-17T22:15:19.467Z,5.70
2019-02-17T22:17:48.058Z,5.60
2019-02-17T22:20:17.250Z,5.50
2019-02-17T22:22:46.270Z,5.60
2019-02-17T22:25:17.321Z,5.60
2019-02-17T22:27:46.466Z,5.70
2019-02-17T22:30:15.792Z,5.80
2019-02-17T22:32:44.416Z,5.80
2019-02-17T22:35:13.162Z,5.70
2019-02-17T22:37:41.901Z,5.60
2019-02-17T22:40:13.444Z,5.50
2019-02-17T22:42:42.361Z,5.40
2019-02-17T22:45:12.284Z,5.40
2019-02-17T22:47:40.921Z,5.30
2019-02-17T22:50:15.948Z,5.30
2019-02-17T22:52:46.056Z,5.30
2019-02-17T22:55:14.961Z,5.30
2019-02-17T22:57:43.643Z,5.40
2019-02-17T23:00:46.041Z,5.40
2019-02-17T23:03:15.127Z,5.30
2019-02-17T23:05:44.030Z,5.20
2019-02-17T23:08:12.630Z,5.20
2019-02-17T23:10:41.185Z,5.10
2019-02-17T23:13:10.325Z,5.00
2019-02-17T23:15:38.880Z,4.80
2019-02-17T23:18:07.458Z,4.70
2019-02-17T23:20:36.016Z,4.70
2019-02-17T23:23:04.608Z,4.60
2019-02-17T23:25:33.234Z,4.60
2019-02-17T23:28:02.236Z,4.70
2019-02-17T23:30:31.204Z,4.70
2019-02-17T23:32:59.821Z,4.60
2019-02-17T23:35:28.465Z,4.70
2019-02-17T23:37:57.365Z,4.80
2019-02-17T23:40:25.944Z,4.80
2019-02-17T23:42:54.854Z,4.80
2019-02-17T23:45:23.412Z,4.90
2019-02-17T23:47:51.969Z,4.90
2019-02-17T23:50:20.541Z,4.80
2019-02-17T23:52:49.096Z,4.90
2019-02-17T23:55:17.659Z,4.80
2019-02-17T23:57:46.309Z,4.80
